sensor_id;sensor_type;location;lat;lon;timestamp;P1;durP1;ratioP1;P2;durP2;ratioP2
68076;SDS011;54866;53.458;14.540;2022-09-02T00:01:52;2.20;;;1.50;;
68076;SDS011;54866;53.458;14.540;2022-09-02T00:04:24;3.30;;;1.60;;
68076;SDS011;54866;53.458;14.540;2022-09-02T00:06:55;5.00;;;1.80;;
68076;SDS011;54866;53.458;14.540;2022-09-02T00:09:25;3.40;;;1.30;;
68076;SDS011;54866;53.458;14.540;2022-09-02T00:11:56;3.30;;;2.00;;
68076;SDS011;54866;53.458;14.540;2022-09-02T00:14:27;3.70;;;1.70;;
68076;SDS011;54866;53.458;14.540;2022-09-02T00:17:00;4.00;;;2.00;;
68076;SDS011;54866;53.458;14.540;2022-09-02T00:19:30;2.90;;;1.90;;
68076;SDS011;54866;53.458;14.540;2022-09-02T00:22:04;4.30;;;1.70;;
68076;SDS011;54866;53.458;14.540;2022-09-02T00:24:33;3.30;;;1.70;;
68076;SDS011;54866;53.458;14.540;2022-09-02T00:27:10;3.70;;;1.50;;
68076;SDS011;54866;53.458;14.540;2022-09-02T00:29:51;2.50;;;1.30;;
68076;SDS011;54866;53.458;14.540;2022-09-02T00:32:21;2.10;;;1.10;;
68076;SDS011;54866;53.458;14.540;2022-09-02T00:34:51;2.10;;;1.10;;
68076;SDS011;54866;53.458;14.540;2022-09-02T00:37:24;2.20;;;1.30;;
68076;SDS011;54866;53.458;14.540;2022-09-02T00:39:54;2.10;;;1.00;;
68076;SDS011;54866;53.458;14.540;2022-09-02T00:42:25;3.30;;;1.20;;
68076;SDS011;54866;53.458;14.540;2022-09-02T00:44:55;3.50;;;1.30;;
68076;SDS011;54866;53.458;14.540;2022-09-02T00:47:29;3.40;;;1.30;;
68076;SDS011;54866;53.458;14.540;2022-09-02T00:49:59;3.50;;;1.30;;
68076;SDS011;54866;53.458;14.540;2022-09-02T00:52:31;3.00;;;1.00;;
68076;SDS011;54866;53.458;14.540;2022-09-02T00:55:09;2.50;;;1.40;;
68076;SDS011;54866;53.458;14.540;2022-09-02T00:57:46;2.30;;;1.20;;
68076;SDS011;54866;53.458;14.540;2022-09-02T01:00:23;3.70;;;2.00;;
68076;SDS011;54866;53.458;14.540;2022-09-02T01:02:59;2.90;;;1.80;;
68076;SDS011;54866;53.458;14.540;2022-09-02T01:05:38;3.10;;;1.40;;
68076;SDS011;54866;53.458;14.540;2022-09-02T01:08:14;4.20;;;2.30;;
68076;SDS011;54866;53.458;14.540;2022-09-02T01:10:46;3.50;;;1.50;;
68076;SDS011;54866;53.458;14.540;2022-09-02T01:13:22;2.40;;;1.20;;
68076;SDS011;54866;53.458;14.540;2022-09-02T01:15:54;1.90;;;1.10;;
68076;SDS011;54866;53.458;14.540;2022-09-02T01:18:29;2.30;;;1.20;;
68076;SDS011;54866;53.458;14.540;2022-09-02T01:21:02;2.70;;;1.10;;
68076;SDS011;54866;53.458;14.540;2022-09-02T01:23:34;2.60;;;1.10;;
68076;SDS011;54866;53.458;14.540;2022-09-02T01:26:05;3.90;;;1.70;;
68076;SDS011;54866;53.458;14.540;2022-09-02T01:28:37;3.40;;;1.90;;
68076;SDS011;54866;53.458;14.540;2022-09-02T01:31:14;3.60;;;1.70;;
68076;SDS011;54866;53.458;14.540;2022-09-02T01:33:46;7.50;;;2.00;;
68076;SDS011;54866;53.458;14.540;2022-09-02T01:36:17;3.80;;;1.40;;
68076;SDS011;54866;53.458;14.540;2022-09-02T01:38:49;2.80;;;1.20;;
68076;SDS011;54866;53.458;14.540;2022-09-02T01:41:19;2.30;;;1.00;;
68076;SDS011;54866;53.458;14.540;2022-09-02T01:43:48;3.50;;;1.40;;
68076;SDS011;54866;53.458;14.540;2022-09-02T01:46:19;2.10;;;1.20;;
68076;SDS011;54866;53.458;14.540;2022-09-02T01:48:50;3.10;;;1.10;;
68076;SDS011;54866;53.458;14.540;2022-09-02T01:51:20;3.70;;;1.70;;
68076;SDS011;54866;53.458;14.540;2022-09-02T01:53:52;2.90;;;1.50;;
68076;SDS011;54866;53.458;14.540;2022-09-02T01:56:24;2.40;;;1.30;;
68076;SDS011;54866;53.458;14.540;2022-09-02T01:58:54;2.40;;;1.20;;
68076;SDS011;54866;53.458;14.540;2022-09-02T02:01:28;4.80;;;1.60;;
68076;SDS011;54866;53.458;14.540;2022-09-02T02:04:01;2.70;;;1.20;;
68076;SDS011;54866;53.458;14.540;2022-09-02T02:06:31;3.60;;;1.50;;
68076;SDS011;54866;53.458;14.540;2022-09-02T02:09:03;2.60;;;1.30;;
68076;SDS011;54866;53.458;14.540;2022-09-02T02:11:33;2.50;;;1.30;;
68076;SDS011;54866;53.458;14.540;2022-09-02T02:14:03;2.00;;;1.10;;
68076;SDS011;54866;53.458;14.540;2022-09-02T02:16:36;3.70;;;1.30;;
68076;SDS011;54866;53.458;14.540;2022-09-02T02:19:06;3.50;;;1.20;;
68076;SDS011;54866;53.458;14.540;2022-09-02T02:21:36;2.20;;;1.20;;
68076;SDS011;54866;53.458;14.540;2022-09-02T02:24:06;9.30;;;1.70;;
68076;SDS011;54866;53.458;14.540;2022-09-02T02:26:36;2.90;;;1.80;;
68076;SDS011;54866;53.458;14.540;2022-09-02T02:29:06;2.50;;;1.40;;
68076;SDS011;54866;53.458;14.540;2022-09-02T02:31:36;4.00;;;2.20;;
68076;SDS011;54866;53.458;14.540;2022-09-02T02:34:13;2.70;;;1.50;;
68076;SDS011;54866;53.458;14.540;2022-09-02T02:36:46;3.30;;;1.60;;
68076;SDS011;54866;53.458;14.540;2022-09-02T02:39:16;3.50;;;1.50;;
68076;SDS011;54866;53.458;14.540;2022-09-02T02:41:48;2.80;;;1.50;;
68076;SDS011;54866;53.458;14.540;2022-09-02T02:44:18;3.60;;;2.40;;
68076;SDS011;54866;53.458;14.540;2022-09-02T02:46:48;3.60;;;1.50;;
68076;SDS011;54866;53.458;14.540;2022-09-02T02:49:21;2.40;;;1.60;;
68076;SDS011;54866;53.458;14.540;2022-09-02T02:51:52;3.70;;;2.00;;
68076;SDS011;54866;53.458;14.540;2022-09-02T02:54:22;2.50;;;1.60;;
68076;SDS011;54866;53.458;14.540;2022-09-02T02:56:54;2.50;;;1.30;;
68076;SDS011;54866;53.458;14.540;2022-09-02T02:59:24;3.80;;;1.70;;
68076;SDS011;54866;53.458;14.540;2022-09-02T03:01:55;2.80;;;1.60;;
68076;SDS011;54866;53.458;14.540;2022-09-02T03:04:25;3.60;;;2.20;;
68076;SDS011;54866;53.458;14.540;2022-09-02T03:06:55;3.00;;;1.40;;
68076;SDS011;54866;53.458;14.540;2022-09-02T03:09:24;2.70;;;1.30;;
68076;SDS011;54866;53.458;14.540;2022-09-02T03:11:54;3.70;;;1.50;;
68076;SDS011;54866;53.458;14.540;2022-09-02T03:14:24;2.70;;;1.40;;
68076;SDS011;54866;53.458;14.540;2022-09-02T03:16:54;2.30;;;1.20;;
68076;SDS011;54866;53.458;14.540;2022-09-02T03:19:24;2.70;;;1.20;;
68076;SDS011;54866;53.458;14.540;2022-09-02T03:21:54;3.60;;;1.60;;
68076;SDS011;54866;53.458;14.540;2022-09-02T03:24:24;2.40;;;1.10;;
68076;SDS011;54866;53.458;14.540;2022-09-02T03:26:53;2.30;;;1.20;;
68076;SDS011;54866;53.458;14.540;2022-09-02T03:29:23;2.80;;;1.60;;
68076;SDS011;54866;53.458;14.540;2022-09-02T03:31:53;2.10;;;1.10;;
68076;SDS011;54866;53.458;14.540;2022-09-02T03:34:23;3.30;;;1.20;;
68076;SDS011;54866;53.458;14.540;2022-09-02T03:36:53;2.30;;;1.20;;
68076;SDS011;54866;53.458;14.540;2022-09-02T03:39:22;2.80;;;1.30;;
68076;SDS011;54866;53.458;14.540;2022-09-02T03:41:52;2.50;;;1.30;;
68076;SDS011;54866;53.458;14.540;2022-09-02T03:44:22;2.20;;;1.20;;
68076;SDS011;54866;53.458;14.540;2022-09-02T03:46:52;2.60;;;1.20;;
68076;SDS011;54866;53.458;14.540;2022-09-02T03:49:21;4.10;;;1.10;;
68076;SDS011;54866;53.458;14.540;2022-09-02T03:51:52;4.00;;;1.30;;
68076;SDS011;54866;53.458;14.540;2022-09-02T03:54:22;2.60;;;1.20;;
68076;SDS011;54866;53.458;14.540;2022-09-02T03:56:52;2.00;;;1.10;;
68076;SDS011;54866;53.458;14.540;2022-09-02T03:59:22;2.60;;;1.40;;
68076;SDS011;54866;53.458;14.540;2022-09-02T04:01:52;3.70;;;1.20;;
68076;SDS011;54866;53.458;14.540;2022-09-02T04:04:22;2.20;;;1.10;;
68076;SDS011;54866;53.458;14.540;2022-09-02T04:06:52;3.10;;;1.70;;
68076;SDS011;54866;53.458;14.540;2022-09-02T04:09:22;2.40;;;1.30;;
68076;SDS011;54866;53.458;14.540;2022-09-02T04:11:52;5.50;;;1.50;;
68076;SDS011;54866;53.458;14.540;2022-09-02T04:14:22;2.70;;;1.60;;
68076;SDS011;54866;53.458;14.540;2022-09-02T04:16:53;2.40;;;1.20;;
68076;SDS011;54866;53.458;14.540;2022-09-02T04:19:22;3.00;;;1.50;;
68076;SDS011;54866;53.458;14.540;2022-09-02T04:21:52;1.80;;;1.00;;
68076;SDS011;54866;53.458;14.540;2022-09-02T04:24:22;1.70;;;1.00;;
68076;SDS011;54866;53.458;14.540;2022-09-02T04:26:52;3.30;;;1.80;;
68076;SDS011;54866;53.458;14.540;2022-09-02T04:29:22;4.10;;;1.30;;
68076;SDS011;54866;53.458;14.540;2022-09-02T04:31:52;2.70;;;1.60;;
68076;SDS011;54866;53.458;14.540;2022-09-02T04:34:22;2.50;;;1.20;;
68076;SDS011;54866;53.458;14.540;2022-09-02T04:36:52;2.60;;;1.30;;
68076;SDS011;54866;53.458;14.540;2022-09-02T04:39:22;3.20;;;1.30;;
68076;SDS011;54866;53.458;14.540;2022-09-02T04:41:51;2.50;;;1.30;;
68076;SDS011;54866;53.458;14.540;2022-09-02T04:44:21;2.90;;;1.20;;
68076;SDS011;54866;53.458;14.540;2022-09-02T04:46:52;3.40;;;1.60;;
68076;SDS011;54866;53.458;14.540;2022-09-02T04:49:22;3.10;;;1.40;;
68076;SDS011;54866;53.458;14.540;2022-09-02T04:51:52;2.70;;;1.20;;
68076;SDS011;54866;53.458;14.540;2022-09-02T04:54:22;3.20;;;1.70;;
68076;SDS011;54866;53.458;14.540;2022-09-02T04:56:52;3.50;;;1.60;;
68076;SDS011;54866;53.458;14.540;2022-09-02T04:59:22;3.40;;;2.10;;
68076;SDS011;54866;53.458;14.540;2022-09-02T05:01:52;4.00;;;2.00;;
68076;SDS011;54866;53.458;14.540;2022-09-02T05:04:22;3.80;;;2.10;;
68076;SDS011;54866;53.458;14.540;2022-09-02T05:06:52;3.20;;;2.00;;
68076;SDS011;54866;53.458;14.540;2022-09-02T05:09:23;3.80;;;2.10;;
68076;SDS011;54866;53.458;14.540;2022-09-02T05:11:53;4.10;;;2.00;;
68076;SDS011;54866;53.458;14.540;2022-09-02T05:14:24;2.50;;;1.80;;
68076;SDS011;54866;53.458;14.540;2022-09-02T05:16:54;3.40;;;2.00;;
68076;SDS011;54866;53.458;14.540;2022-09-02T05:19:25;3.00;;;2.00;;
68076;SDS011;54866;53.458;14.540;2022-09-02T05:21:55;3.80;;;1.90;;
68076;SDS011;54866;53.458;14.540;2022-09-02T05:24:27;3.80;;;2.30;;
68076;SDS011;54866;53.458;14.540;2022-09-02T05:26:57;4.70;;;1.70;;
68076;SDS011;54866;53.458;14.540;2022-09-02T05:29:27;3.20;;;1.70;;
68076;SDS011;54866;53.458;14.540;2022-09-02T05:31:56;3.20;;;1.40;;
68076;SDS011;54866;53.458;14.540;2022-09-02T05:34:26;3.40;;;1.50;;
68076;SDS011;54866;53.458;14.540;2022-09-02T05:36:56;3.90;;;1.70;;
68076;SDS011;54866;53.458;14.540;2022-09-02T05:39:26;2.50;;;1.50;;
68076;SDS011;54866;53.458;14.540;2022-09-02T05:41:56;2.90;;;1.50;;
68076;SDS011;54866;53.458;14.540;2022-09-02T05:44:26;4.20;;;1.90;;
68076;SDS011;54866;53.458;14.540;2022-09-02T05:46:56;3.00;;;1.90;;
68076;SDS011;54866;53.458;14.540;2022-09-02T05:49:26;2.60;;;1.50;;
68076;SDS011;54866;53.458;14.540;2022-09-02T05:51:57;3.90;;;2.30;;
68076;SDS011;54866;53.458;14.540;2022-09-02T05:54:28;3.10;;;1.80;;
68076;SDS011;54866;53.458;14.540;2022-09-02T05:57:00;3.20;;;1.90;;
68076;SDS011;54866;53.458;14.540;2022-09-02T05:59:35;2.80;;;1.80;;
68076;SDS011;54866;53.458;14.540;2022-09-02T06:02:08;4.60;;;2.10;;
68076;SDS011;54866;53.458;14.540;2022-09-02T06:04:41;3.80;;;2.30;;
68076;SDS011;54866;53.458;14.540;2022-09-02T06:09:41;3.00;;;1.80;;
68076;SDS011;54866;53.458;14.540;2022-09-02T06:12:11;3.30;;;2.10;;
68076;SDS011;54866;53.458;14.540;2022-09-02T06:14:46;3.40;;;2.40;;
68076;SDS011;54866;53.458;14.540;2022-09-02T06:17:16;3.40;;;1.90;;
68076;SDS011;54866;53.458;14.540;2022-09-02T06:19:46;3.90;;;2.10;;
68076;SDS011;54866;53.458;14.540;2022-09-02T06:22:16;2.70;;;2.10;;
68076;SDS011;54866;53.458;14.540;2022-09-02T06:24:46;2.60;;;2.00;;
68076;SDS011;54866;53.458;14.540;2022-09-02T06:27:16;3.10;;;2.00;;
68076;SDS011;54866;53.458;14.540;2022-09-02T06:29:47;5.10;;;2.20;;
68076;SDS011;54866;53.458;14.540;2022-09-02T06:32:16;3.80;;;2.10;;
68076;SDS011;54866;53.458;14.540;2022-09-02T06:34:46;2.80;;;1.80;;
68076;SDS011;54866;53.458;14.540;2022-09-02T06:37:16;2.50;;;1.70;;
68076;SDS011;54866;53.458;14.540;2022-09-02T06:39:46;3.30;;;1.90;;
68076;SDS011;54866;53.458;14.540;2022-09-02T06:42:15;2.90;;;2.10;;
68076;SDS011;54866;53.458;14.540;2022-09-02T06:44:45;3.50;;;2.20;;
68076;SDS011;54866;53.458;14.540;2022-09-02T06:47:15;5.40;;;2.30;;
68076;SDS011;54866;53.458;14.540;2022-09-02T06:49:45;2.90;;;2.10;;
68076;SDS011;54866;53.458;14.540;2022-09-02T06:52:15;3.30;;;2.40;;
68076;SDS011;54866;53.458;14.540;2022-09-02T06:54:44;3.50;;;2.60;;
68076;SDS011;54866;53.458;14.540;2022-09-02T06:57:16;3.30;;;2.60;;
68076;SDS011;54866;53.458;14.540;2022-09-02T06:59:46;4.20;;;2.70;;
68076;SDS011;54866;53.458;14.540;2022-09-02T07:02:16;3.70;;;2.50;;
68076;SDS011;54866;53.458;14.540;2022-09-02T07:04:46;4.40;;;2.80;;
68076;SDS011;54866;53.458;14.540;2022-09-02T07:07:42;3.10;;;1.90;;
68076;SDS011;54866;53.458;14.540;2022-09-02T07:10:15;4.00;;;2.30;;
68076;SDS011;54866;53.458;14.540;2022-09-02T07:12:45;5.20;;;3.00;;
68076;SDS011;54866;53.458;14.540;2022-09-02T07:15:14;5.40;;;3.20;;
68076;SDS011;54866;53.458;14.540;2022-09-02T07:17:44;4.40;;;3.00;;
68076;SDS011;54866;53.458;14.540;2022-09-02T07:20:15;3.40;;;2.70;;
68076;SDS011;54866;53.458;14.540;2022-09-02T07:22:45;5.20;;;2.90;;
68076;SDS011;54866;53.458;14.540;2022-09-02T07:25:16;3.50;;;2.70;;
68076;SDS011;54866;53.458;14.540;2022-09-02T07:27:46;3.10;;;2.30;;
68076;SDS011;54866;53.458;14.540;2022-09-02T07:30:18;3.90;;;2.60;;
68076;SDS011;54866;53.458;14.540;2022-09-02T07:32:48;3.40;;;2.50;;
68076;SDS011;54866;53.458;14.540;2022-09-02T07:35:17;3.60;;;2.50;;
68076;SDS011;54866;53.458;14.540;2022-09-02T07:37:47;3.50;;;2.60;;
68076;SDS011;54866;53.458;14.540;2022-09-02T07:40:17;3.50;;;2.40;;
68076;SDS011;54866;53.458;14.540;2022-09-02T07:42:47;3.00;;;2.30;;
68076;SDS011;54866;53.458;14.540;2022-09-02T07:45:17;3.20;;;2.00;;
68076;SDS011;54866;53.458;14.540;2022-09-02T07:47:48;3.20;;;2.20;;
68076;SDS011;54866;53.458;14.540;2022-09-02T07:50:18;3.90;;;2.40;;
68076;SDS011;54866;53.458;14.540;2022-09-02T07:52:48;3.50;;;2.40;;
68076;SDS011;54866;53.458;14.540;2022-09-02T07:55:18;3.20;;;2.00;;
68076;SDS011;54866;53.458;14.540;2022-09-02T07:57:48;3.60;;;2.10;;
68076;SDS011;54866;53.458;14.540;2022-09-02T08:00:20;4.00;;;2.30;;
68076;SDS011;54866;53.458;14.540;2022-09-02T08:02:53;2.70;;;1.90;;
68076;SDS011;54866;53.458;14.540;2022-09-02T08:05:24;3.50;;;2.10;;
68076;SDS011;54866;53.458;14.540;2022-09-02T08:07:55;6.00;;;2.10;;
68076;SDS011;54866;53.458;14.540;2022-09-02T08:10:26;3.50;;;2.20;;
68076;SDS011;54866;53.458;14.540;2022-09-02T08:12:57;4.10;;;2.50;;
68076;SDS011;54866;53.458;14.540;2022-09-02T08:15:28;3.60;;;2.10;;
68076;SDS011;54866;53.458;14.540;2022-09-02T08:17:59;4.50;;;2.00;;
68076;SDS011;54866;53.458;14.540;2022-09-02T08:20:30;3.30;;;2.20;;
68076;SDS011;54866;53.458;14.540;2022-09-02T08:23:00;3.30;;;2.10;;
68076;SDS011;54866;53.458;14.540;2022-09-02T08:28:00;2.50;;;1.70;;
68076;SDS011;54866;53.458;14.540;2022-09-02T08:30:31;4.20;;;1.70;;
68076;SDS011;54866;53.458;14.540;2022-09-02T08:33:01;3.60;;;2.00;;
68076;SDS011;54866;53.458;14.540;2022-09-02T08:35:31;2.20;;;1.30;;
68076;SDS011;54866;53.458;14.540;2022-09-02T08:38:02;2.30;;;1.40;;
68076;SDS011;54866;53.458;14.540;2022-09-02T08:40:33;2.10;;;1.10;;
68076;SDS011;54866;53.458;14.540;2022-09-02T08:43:11;1.80;;;1.10;;
68076;SDS011;54866;53.458;14.540;2022-09-02T08:45:56;2.90;;;1.50;;
68076;SDS011;54866;53.458;14.540;2022-09-02T08:48:33;2.30;;;1.10;;
68076;SDS011;54866;53.458;14.540;2022-09-02T08:51:09;2.40;;;1.10;;
68076;SDS011;54866;53.458;14.540;2022-09-02T08:53:45;2.50;;;1.40;;
68076;SDS011;54866;53.458;14.540;2022-09-02T08:56:18;2.00;;;1.00;;
68076;SDS011;54866;53.458;14.540;2022-09-02T08:58:49;2.10;;;1.10;;
68076;SDS011;54866;53.458;14.540;2022-09-02T09:01:24;3.90;;;2.70;;
68076;SDS011;54866;53.458;14.540;2022-09-02T09:04:08;3.00;;;1.40;;
68076;SDS011;54866;53.458;14.540;2022-09-02T09:06:50;2.60;;;1.60;;
68076;SDS011;54866;53.458;14.540;2022-09-02T09:09:31;2.70;;;1.60;;
68076;SDS011;54866;53.458;14.540;2022-09-02T09:12:14;2.00;;;1.40;;
68076;SDS011;54866;53.458;14.540;2022-09-02T09:14:54;2.40;;;1.40;;
68076;SDS011;54866;53.458;14.540;2022-09-02T09:17:31;2.20;;;1.10;;
68076;SDS011;54866;53.458;14.540;2022-09-02T09:20:13;1.60;;;1.00;;
68076;SDS011;54866;53.458;14.540;2022-09-02T09:22:46;1.90;;;0.90;;
68076;SDS011;54866;53.458;14.540;2022-09-02T09:25:18;1.40;;;0.80;;
68076;SDS011;54866;53.458;14.540;2022-09-02T09:27:51;1.20;;;0.70;;
68076;SDS011;54866;53.458;14.540;2022-09-02T09:30:21;3.20;;;0.80;;
68076;SDS011;54866;53.458;14.540;2022-09-02T09:32:51;2.40;;;0.90;;
68076;SDS011;54866;53.458;14.540;2022-09-02T09:35:23;1.80;;;0.80;;
68076;SDS011;54866;53.458;14.540;2022-09-02T09:37:54;2.40;;;1.00;;
68076;SDS011;54866;53.458;14.540;2022-09-02T09:40:26;2.10;;;0.80;;
68076;SDS011;54866;53.458;14.540;2022-09-02T09:42:58;1.80;;;0.80;;
68076;SDS011;54866;53.458;14.540;2022-09-02T09:45:41;1.50;;;0.70;;
68076;SDS011;54866;53.458;14.540;2022-09-02T09:48:18;3.10;;;1.00;;
68076;SDS011;54866;53.458;14.540;2022-09-02T09:53:45;2.00;;;0.80;;
68076;SDS011;54866;53.458;14.540;2022-09-02T09:56:29;4.00;;;0.80;;
68076;SDS011;54866;53.458;14.540;2022-09-02T09:59:02;1.50;;;0.60;;
68076;SDS011;54866;53.458;14.540;2022-09-02T10:01:34;2.30;;;0.80;;
68076;SDS011;54866;53.458;14.540;2022-09-02T10:04:04;2.00;;;0.80;;
68076;SDS011;54866;53.458;14.540;2022-09-02T10:06:39;2.00;;;0.70;;
68076;SDS011;54866;53.458;14.540;2022-09-02T10:11:54;1.50;;;0.80;;
68076;SDS011;54866;53.458;14.540;2022-09-02T10:14:26;1.40;;;0.80;;
68076;SDS011;54866;53.458;14.540;2022-09-02T10:17:03;2.90;;;0.80;;
68076;SDS011;54866;53.458;14.540;2022-09-02T10:19:43;2.30;;;0.80;;
68076;SDS011;54866;53.458;14.540;2022-09-02T10:22:29;1.60;;;0.70;;
68076;SDS011;54866;53.458;14.540;2022-09-02T10:25:20;1.80;;;1.00;;
68076;SDS011;54866;53.458;14.540;2022-09-02T10:27:58;4.00;;;1.30;;
68076;SDS011;54866;53.458;14.540;2022-09-02T10:30:36;2.70;;;0.90;;
68076;SDS011;54866;53.458;14.540;2022-09-02T10:33:20;2.40;;;0.70;;
68076;SDS011;54866;53.458;14.540;2022-09-02T10:35:58;2.00;;;1.20;;
68076;SDS011;54866;53.458;14.540;2022-09-02T10:38:38;3.50;;;0.90;;
68076;SDS011;54866;53.458;14.540;2022-09-02T10:41:12;2.80;;;0.90;;
68076;SDS011;54866;53.458;14.540;2022-09-02T10:43:57;2.30;;;1.00;;
68076;SDS011;54866;53.458;14.540;2022-09-02T10:46:37;1.90;;;0.80;;
68076;SDS011;54866;53.458;14.540;2022-09-02T10:49:17;2.50;;;0.90;;
68076;SDS011;54866;53.458;14.540;2022-09-02T10:51:59;1.90;;;0.70;;
68076;SDS011;54866;53.458;14.540;2022-09-02T10:54:39;2.00;;;1.00;;
68076;SDS011;54866;53.458;14.540;2022-09-02T10:59:51;1.40;;;0.70;;
68076;SDS011;54866;53.458;14.540;2022-09-02T11:02:27;1.60;;;0.90;;
68076;SDS011;54866;53.458;14.540;2022-09-02T11:05:03;2.10;;;0.80;;
68076;SDS011;54866;53.458;14.540;2022-09-02T11:07:40;1.50;;;0.80;;
68076;SDS011;54866;53.458;14.540;2022-09-02T11:10:14;1.40;;;0.60;;
68076;SDS011;54866;53.458;14.540;2022-09-02T11:12:49;1.60;;;0.70;;
68076;SDS011;54866;53.458;14.540;2022-09-02T11:15:26;1.70;;;0.80;;
68076;SDS011;54866;53.458;14.540;2022-09-02T11:18:07;1.70;;;0.70;;
68076;SDS011;54866;53.458;14.540;2022-09-02T11:20:43;2.10;;;0.70;;
68076;SDS011;54866;53.458;14.540;2022-09-02T11:23:21;1.90;;;0.50;;
68076;SDS011;54866;53.458;14.540;2022-09-02T11:26:03;1.30;;;0.60;;
68076;SDS011;54866;53.458;14.540;2022-09-02T11:28:39;1.10;;;0.40;;
68076;SDS011;54866;53.458;14.540;2022-09-02T11:31:16;2.10;;;0.50;;
68076;SDS011;54866;53.458;14.540;2022-09-02T11:33:51;2.00;;;0.70;;
68076;SDS011;54866;53.458;14.540;2022-09-02T11:36:27;2.20;;;0.60;;
68076;SDS011;54866;53.458;14.540;2022-09-02T11:38:58;1.20;;;0.50;;
68076;SDS011;54866;53.458;14.540;2022-09-02T11:41:36;1.50;;;0.60;;
68076;SDS011;54866;53.458;14.540;2022-09-02T11:44:26;2.30;;;0.70;;
68076;SDS011;54866;53.458;14.540;2022-09-02T11:47:26;2.50;;;0.80;;
68076;SDS011;54866;53.458;14.540;2022-09-02T11:53:18;1.70;;;0.50;;
68076;SDS011;54866;53.458;14.540;2022-09-02T11:55:52;2.00;;;0.60;;
68076;SDS011;54866;53.458;14.540;2022-09-02T11:58:33;1.60;;;0.50;;
68076;SDS011;54866;53.458;14.540;2022-09-02T12:01:14;1.40;;;0.70;;
68076;SDS011;54866;53.458;14.540;2022-09-02T12:03:55;1.90;;;0.60;;
68076;SDS011;54866;53.458;14.540;2022-09-02T12:06:27;1.00;;;0.40;;
68076;SDS011;54866;53.458;14.540;2022-09-02T12:09:03;1.20;;;0.50;;
68076;SDS011;54866;53.458;14.540;2022-09-02T12:11:42;1.10;;;0.60;;
68076;SDS011;54866;53.458;14.540;2022-09-02T12:17:39;2.30;;;0.50;;
68076;SDS011;54866;53.458;14.540;2022-09-02T12:29:44;2.20;;;0.70;;
68076;SDS011;54866;53.458;14.540;2022-09-02T12:32:25;1.60;;;0.50;;
68076;SDS011;54866;53.458;14.540;2022-09-02T12:35:48;1.50;;;0.60;;
68076;SDS011;54866;53.458;14.540;2022-09-02T12:38:27;1.20;;;0.40;;
68076;SDS011;54866;53.458;14.540;2022-09-02T12:41:05;1.40;;;0.70;;
68076;SDS011;54866;53.458;14.540;2022-09-02T12:47:03;2.40;;;1.10;;
68076;SDS011;54866;53.458;14.540;2022-09-02T12:49:42;2.80;;;1.10;;
68076;SDS011;54866;53.458;14.540;2022-09-02T12:52:38;1.30;;;0.60;;
68076;SDS011;54866;53.458;14.540;2022-09-02T12:55:12;1.30;;;0.50;;
68076;SDS011;54866;53.458;14.540;2022-09-02T12:57:55;2.70;;;0.80;;
68076;SDS011;54866;53.458;14.540;2022-09-02T13:00:36;1.40;;;0.60;;
68076;SDS011;54866;53.458;14.540;2022-09-02T13:03:30;1.30;;;0.50;;
68076;SDS011;54866;53.458;14.540;2022-09-02T13:06:18;1.70;;;0.50;;
68076;SDS011;54866;53.458;14.540;2022-09-02T13:09:08;1.00;;;0.40;;
68076;SDS011;54866;53.458;14.540;2022-09-02T13:12:04;1.80;;;0.60;;
68076;SDS011;54866;53.458;14.540;2022-09-02T13:14:55;2.50;;;0.70;;
68076;SDS011;54866;53.458;14.540;2022-09-02T13:17:47;1.40;;;0.60;;
68076;SDS011;54866;53.458;14.540;2022-09-02T13:20:50;1.20;;;0.50;;
68076;SDS011;54866;53.458;14.540;2022-09-02T13:27:08;3.30;;;0.60;;
68076;SDS011;54866;53.458;14.540;2022-09-02T13:30:05;2.00;;;0.60;;
68076;SDS011;54866;53.458;14.540;2022-09-02T13:32:40;1.40;;;0.50;;
68076;SDS011;54866;53.458;14.540;2022-09-02T13:35:17;0.90;;;0.40;;
68076;SDS011;54866;53.458;14.540;2022-09-02T13:37:53;2.80;;;0.70;;
68076;SDS011;54866;53.458;14.540;2022-09-02T13:40:27;2.00;;;0.50;;
68076;SDS011;54866;53.458;14.540;2022-09-02T13:42:59;2.20;;;0.60;;
68076;SDS011;54866;53.458;14.540;2022-09-02T13:45:32;1.30;;;0.60;;
68076;SDS011;54866;53.458;14.540;2022-09-02T13:48:05;1.50;;;0.50;;
68076;SDS011;54866;53.458;14.540;2022-09-02T13:50:40;1.30;;;0.60;;
68076;SDS011;54866;53.458;14.540;2022-09-02T13:53:12;1.80;;;0.70;;
68076;SDS011;54866;53.458;14.540;2022-09-02T13:55:48;0.70;;;0.40;;
68076;SDS011;54866;53.458;14.540;2022-09-02T13:58:22;1.60;;;0.60;;
68076;SDS011;54866;53.458;14.540;2022-09-02T14:03:51;1.50;;;0.70;;
68076;SDS011;54866;53.458;14.540;2022-09-02T14:06:23;1.60;;;0.90;;
68076;SDS011;54866;53.458;14.540;2022-09-02T14:08:56;1.30;;;0.50;;
68076;SDS011;54866;53.458;14.540;2022-09-02T14:11:31;1.70;;;0.40;;
68076;SDS011;54866;53.458;14.540;2022-09-02T14:14:06;1.90;;;0.50;;
68076;SDS011;54866;53.458;14.540;2022-09-02T14:16:40;3.50;;;0.60;;
68076;SDS011;54866;53.458;14.540;2022-09-02T14:19:11;1.60;;;0.60;;
68076;SDS011;54866;53.458;14.540;2022-09-02T14:21:52;2.40;;;0.70;;
68076;SDS011;54866;53.458;14.540;2022-09-02T14:24:24;1.60;;;0.80;;
68076;SDS011;54866;53.458;14.540;2022-09-02T14:26:56;2.60;;;0.80;;
68076;SDS011;54866;53.458;14.540;2022-09-02T14:29:27;1.60;;;0.70;;
68076;SDS011;54866;53.458;14.540;2022-09-02T14:32:11;1.70;;;0.60;;
68076;SDS011;54866;53.458;14.540;2022-09-02T14:34:48;2.00;;;0.90;;
68076;SDS011;54866;53.458;14.540;2022-09-02T14:37:47;2.20;;;0.90;;
68076;SDS011;54866;53.458;14.540;2022-09-02T14:40:29;1.90;;;0.80;;
68076;SDS011;54866;53.458;14.540;2022-09-02T14:43:00;1.70;;;0.90;;
68076;SDS011;54866;53.458;14.540;2022-09-02T14:45:32;1.40;;;0.50;;
68076;SDS011;54866;53.458;14.540;2022-09-02T14:48:09;2.70;;;0.60;;
68076;SDS011;54866;53.458;14.540;2022-09-02T14:50:45;1.70;;;0.70;;
68076;SDS011;54866;53.458;14.540;2022-09-02T14:53:19;3.10;;;1.60;;
68076;SDS011;54866;53.458;14.540;2022-09-02T14:55:51;2.10;;;0.70;;
68076;SDS011;54866;53.458;14.540;2022-09-02T14:58:23;1.40;;;0.60;;
68076;SDS011;54866;53.458;14.540;2022-09-02T15:00:54;1.60;;;0.60;;
68076;SDS011;54866;53.458;14.540;2022-09-02T15:03:26;1.30;;;0.60;;
68076;SDS011;54866;53.458;14.540;2022-09-02T15:05:57;1.00;;;0.50;;
68076;SDS011;54866;53.458;14.540;2022-09-02T15:08:26;1.40;;;0.80;;
68076;SDS011;54866;53.458;14.540;2022-09-02T15:10:58;1.40;;;0.60;;
68076;SDS011;54866;53.458;14.540;2022-09-02T15:13:29;2.00;;;0.80;;
68076;SDS011;54866;53.458;14.540;2022-09-02T15:16:00;1.80;;;0.80;;
68076;SDS011;54866;53.458;14.540;2022-09-02T15:18:31;1.30;;;0.60;;
68076;SDS011;54866;53.458;14.540;2022-09-02T15:21:00;1.50;;;0.60;;
68076;SDS011;54866;53.458;14.540;2022-09-02T15:23:30;1.80;;;0.70;;
68076;SDS011;54866;53.458;14.540;2022-09-02T15:26:00;2.00;;;0.70;;
68076;SDS011;54866;53.458;14.540;2022-09-02T15:28:31;1.00;;;0.50;;
68076;SDS011;54866;53.458;14.540;2022-09-02T15:31:01;1.80;;;0.60;;
68076;SDS011;54866;53.458;14.540;2022-09-02T15:33:31;1.60;;;0.60;;
68076;SDS011;54866;53.458;14.540;2022-09-02T15:36:08;1.70;;;0.60;;
68076;SDS011;54866;53.458;14.540;2022-09-02T15:38:40;1.40;;;0.60;;
68076;SDS011;54866;53.458;14.540;2022-09-02T15:41:14;2.60;;;0.80;;
68076;SDS011;54866;53.458;14.540;2022-09-02T15:43:45;1.80;;;0.80;;
68076;SDS011;54866;53.458;14.540;2022-09-02T15:46:20;2.10;;;0.90;;
68076;SDS011;54866;53.458;14.540;2022-09-02T15:48:52;1.80;;;0.90;;
68076;SDS011;54866;53.458;14.540;2022-09-02T15:51:26;2.60;;;0.80;;